»·PEaware :: AAL1458 KPHX-KSAN

AAL1458 :: KPHX-KSAN

FLIGHT INFORMATION

Flight Status: Arrived
Operator:
American Airlines
More flights by this operator :: More flights under this callsign
Pilot: Dave P. (45)
Aircraft: BOEING 737-800
(B738)
More flights by this aircraft type
Origin: KPHX Phoenix Sky Harbor Intl
United States
Destination: KSAN San Diego Intl-Lindbergh
United States
More flights between these airports :: More routes between these airports
Route: +FYRBD1 MOHAK J2 HOGGZ LUCKI1
File this flight plan on PilotEdge
Remarks: PBN / A1B1C1D1S1S2 DOF / 181013 REG / N738PM EET / KZLA0026 OPR / AAL PER / D RMK / TCAS SIMBRIEF
Altitude:
(Current/Filed)
32,000ft
Speed:
(Current/Filed)
470kts
Departed: 13-Oct-18 07:39 AM
Arrived: 13-Oct-18 08:36 AM
Distance/Time
Traveled:
264nm/0:57
Distance/Time
To Go:
Arrived

Flight Plot

Page will automatically refresh every two minutes.

Flight plan parsing failed; only flown route is shown


Map Options




Map Legend


Flown Route
Filed Route
Departure Airport
Arrival Airport
Navaid (VOR, NDB)
Fix

Horizontal Profiles

Position Reports

Time Latitude Longitude Heading Altitude Ground
Speed
13-Oct-18 07:07 33.437712 -111.999836 90 1143ft 0kts
13-Oct-18 07:08 33.437712 -111.999836 90 1143ft 0kts
13-Oct-18 07:09 33.437712 -111.999836 90 1143ft 0kts
13-Oct-18 07:10 33.437712 -111.999836 90 1143ft 0kts
13-Oct-18 07:11 33.437712 -111.999836 90 1143ft 0kts
13-Oct-18 07:12 33.437712 -111.999836 90 1143ft 0kts
13-Oct-18 07:13 33.437712 -111.999836 90 1143ft 0kts
13-Oct-18 07:14 33.437712 -111.999836 90 1143ft 0kts
13-Oct-18 07:15 33.437712 -111.999836 90 1143ft 0kts
13-Oct-18 07:16 33.437712 -111.999836 90 1143ft 0kts
13-Oct-18 07:17 33.437712 -111.999836 90 1143ft 0kts
13-Oct-18 07:18 33.437712 -111.999836 90 1143ft 0kts
13-Oct-18 07:19 33.437712 -111.999836 90 1143ft 0kts
13-Oct-18 07:20 33.437712 -111.999836 90 1143ft 0kts
13-Oct-18 07:21 33.437712 -111.999836 90 1143ft 0kts
13-Oct-18 07:22 33.437712 -111.999836 90 1143ft 0kts
13-Oct-18 07:23 33.437712 -111.999836 90 1143ft 0kts
13-Oct-18 07:24 33.437712 -111.999836 90 1143ft 0kts
13-Oct-18 07:25 33.437712 -111.999836 90 1143ft 0kts
13-Oct-18 07:26 33.437712 -111.999836 90 1143ft 0kts
13-Oct-18 07:27 33.437712 -111.999836 90 1143ft 0kts
13-Oct-18 07:28 33.437712 -111.999836 90 1143ft 0kts
13-Oct-18 07:29 33.437712 -111.999836 90 1143ft 0kts
13-Oct-18 07:30 33.437712 -111.999836 90 1143ft 0kts
13-Oct-18 07:31 33.437712 -111.999836 90 1143ft 0kts
13-Oct-18 07:32 33.437526 -112.000426 43 1143ft 2kts
13-Oct-18 07:33 33.437299 -112.000591 20 1143ft 0kts
13-Oct-18 07:34 33.437300 -112.000591 20 1143ft 0kts
13-Oct-18 07:35 33.438286 -112.000687 0 1143ft 6kts
13-Oct-18 07:36 33.438993 -112.004267 270 1143ft 21kts
13-Oct-18 07:37 33.438994 -112.011736 269 1143ft 24kts
13-Oct-18 07:38 33.438995 -112.019681 269 1143ft 22kts
13-Oct-18 07:39 33.438994 -112.026953 269 1143ft 19kts
13-Oct-18 07:40 33.440079 -112.029676 0 1143ft 4kts
13-Oct-18 07:41 33.440842 -112.019243 89 1143ft 112kts
13-Oct-18 07:42 33.440140 -111.966828 94 3004ft 174kts
13-Oct-18 07:43 33.436033 -111.894665 99 5094ft 236kts
13-Oct-18 07:44 33.390276 -111.845498 181 8184ft 242kts
13-Oct-18 07:45 33.350282 -111.902440 269 11272ft 256kts
13-Oct-18 07:46 33.361539 -111.990688 267 13576ft 294kts
13-Oct-18 07:47 33.320434 -112.085464 233 14880ft 355kts
13-Oct-18 07:48 33.261260 -112.181431 233 17815ft 361kts
13-Oct-18 07:49 33.200759 -112.279383 233 20314ft 371kts
13-Oct-18 07:50 33.138781 -112.380023 233 22518ft 380kts
13-Oct-18 07:51 33.075521 -112.482660 233 24434ft 388kts
13-Oct-18 07:52 33.010847 -112.586670 234 26209ft 393kts
13-Oct-18 07:53 32.957267 -112.699841 254 27714ft 401kts
13-Oct-18 07:54 32.936149 -112.830638 257 29417ft 398kts
13-Oct-18 07:55 32.917902 -112.959300 257 31245ft 391kts
13-Oct-18 07:56 32.900119 -113.087352 258 31884ft 393kts
13-Oct-18 07:57 32.882786 -113.214885 257 31880ft 389kts
13-Oct-18 07:58 32.865331 -113.342087 257 31873ft 390kts
13-Oct-18 07:59 32.847668 -113.469043 257 31866ft 390kts
13-Oct-18 08:00 32.829635 -113.596166 257 31856ft 390kts
13-Oct-18 08:01 32.811595 -113.723447 257 31851ft 390kts
13-Oct-18 08:02 32.793420 -113.850521 257 31846ft 390kts
13-Oct-18 08:03 32.776377 -113.977762 262 31842ft 391kts
13-Oct-18 08:04 32.775830 -114.108357 268 31837ft 400kts
13-Oct-18 08:05 32.781765 -114.240199 268 31831ft 400kts
13-Oct-18 08:06 32.788521 -114.372256 273 31826ft 405kts
13-Oct-18 08:07 32.819880 -114.502717 281 31865ft 413kts
13-Oct-18 08:08 32.855307 -114.632714 282 31882ft 414kts
13-Oct-18 08:09 32.876801 -114.765329 266 31881ft 405kts
13-Oct-18 08:10 32.875261 -114.891911 264 31817ft 361kts
13-Oct-18 08:11 32.873020 -115.009259 264 30202ft 350kts
13-Oct-18 08:12 32.870448 -115.123799 264 28640ft 343kts
13-Oct-18 08:13 32.867583 -115.236341 264 27142ft 337kts
13-Oct-18 08:14 32.864048 -115.346907 260 25750ft 330kts
13-Oct-18 08:15 32.849154 -115.453802 257 24330ft 326kts
13-Oct-18 08:16 32.832823 -115.559540 256 22877ft 323kts
13-Oct-18 08:17 32.815542 -115.664789 256 21425ft 323kts
13-Oct-18 08:18 32.798241 -115.769279 255 19988ft 322kts
13-Oct-18 08:19 32.782379 -115.873463 260 18558ft 319kts
13-Oct-18 08:20 32.775336 -115.977866 262 17191ft 315kts
13-Oct-18 08:21 32.767767 -116.081748 263 15785ft 316kts
13-Oct-18 08:22 32.759841 -116.185298 263 14356ft 314kts
13-Oct-18 08:23 32.751834 -116.288676 263 12978ft 311kts
13-Oct-18 08:24 32.744133 -116.388571 263 11879ft 301kts
13-Oct-18 08:25 32.736408 -116.486484 263 10800ft 290kts
13-Oct-18 08:26 32.728310 -116.573570 262 10353ft 239kts
13-Oct-18 08:27 32.721451 -116.644033 262 9593ft 205kts
13-Oct-18 08:28 32.715990 -116.710511 264 8129ft 199kts
13-Oct-18 08:29 32.674492 -116.742552 191 6675ft 198kts
13-Oct-18 08:30 32.628955 -116.768333 260 5258ft 190kts
13-Oct-18 08:31 32.637891 -116.828959 281 5011ft 188kts
13-Oct-18 08:32 32.647030 -116.879676 281 5017ft 188kts
13-Oct-18 08:33 32.674770 -116.943379 289 4298ft 185kts
13-Oct-18 08:34 32.685668 -116.991647 284 3789ft 181kts
13-Oct-18 08:35 32.702185 -117.060298 285 2476ft 181kts
13-Oct-18 08:36 32.713722 -117.107868 285 1525ft 174kts
13-Oct-18 08:37 32.728334 -117.168120 286 325ft 152kts
13-Oct-18 08:38 32.735319 -117.197049 278 23ft 25kts
13-Oct-18 08:39 32.734812 -117.200051 176 23ft 4kts
13-Oct-18 08:40 32.733371 -117.199130 117 23ft 0kts
13-Oct-18 08:41 32.733371 -117.199130 117 23ft 0kts
13-Oct-18 08:42 32.733371 -117.199130 117 23ft 0kts
13-Oct-18 08:43 32.733371 -117.199130 117 23ft 0kts

Navigation Log

Ident Type
Flight plan parsing failed, navigation log unavailable